createdAt,value
2019-02-26T00:01:35.567Z,70.00
2019-02-26T00:04:05.910Z,70.00
2019-02-26T00:06:35.796Z,70.40
2019-02-26T00:09:10.162Z,70.60
2019-02-26T00:11:40.965Z,70.70
2019-02-26T00:14:15.528Z,70.80
2019-02-26T00:16:44.589Z,70.70
2019-02-26T00:19:17.531Z,71.00
2019-02-26T00:21:51.973Z,71.00
2019-02-26T00:24:23.248Z,71.00
2019-02-26T00:26:54.333Z,71.30
2019-02-26T00:29:26.031Z,71.60
2019-02-26T00:31:59.703Z,71.50
2019-02-26T00:34:32.280Z,71.50
2019-02-26T00:37:06.305Z,71.30
2019-02-26T00:39:36.569Z,71.30
2019-02-26T00:42:08.874Z,71.00
2019-02-26T00:44:38.885Z,70.90
2019-02-26T00:47:13.176Z,70.50
2019-02-26T00:49:44.163Z,70.40
2019-02-26T00:52:15.620Z,70.50
2019-02-26T00:54:46.765Z,70.30
2019-02-26T00:57:19.309Z,70.00
2019-02-26T00:59:50.364Z,69.90
2019-02-26T01:02:22.487Z,69.80
2019-02-26T01:04:53.482Z,69.60
2019-02-26T01:07:23.847Z,69.50
2019-02-26T01:09:56.945Z,69.20
2019-02-26T01:12:28.455Z,69.30
2019-02-26T01:14:59.513Z,69.40
2019-02-26T01:17:31.250Z,69.60
2019-02-26T01:20:05.751Z,69.70
2019-02-26T01:22:37.842Z,69.50
2019-02-26T01:25:12.685Z,69.60
2019-02-26T01:27:45.579Z,69.50
2019-02-26T01:30:23.598Z,69.60
2019-02-26T01:32:53.955Z,69.70
2019-02-26T01:35:23.978Z,70.00
2019-02-26T01:37:55.857Z,70.30
2019-02-26T01:40:29.064Z,70.40
2019-02-26T01:43:01.111Z,70.40
2019-02-26T01:45:34.259Z,70.50
2019-02-26T01:48:06.321Z,70.70
2019-02-26T01:50:40.607Z,71.00
2019-02-26T01:53:12.181Z,71.20
2019-02-26T01:55:45.521Z,71.40
2019-02-26T01:58:17.476Z,71.50
2019-02-26T02:00:49.840Z,71.70
2019-02-26T02:03:23.099Z,71.70
2019-02-26T02:05:54.837Z,71.90
2019-02-26T02:08:27.112Z,72.00
2019-02-26T02:10:59.844Z,72.20
2019-02-26T02:13:32.631Z,72.60
2019-02-26T02:16:02.693Z,73.00
2019-02-26T02:18:36.393Z,73.10
2019-02-26T02:21:06.365Z,73.30
2019-02-26T02:23:37.217Z,73.40
2019-02-26T02:26:08.953Z,73.40
2019-02-26T02:28:39.769Z,73.20
2019-02-26T02:31:09.037Z,73.30
2019-02-26T02:33:42.959Z,73.60
2019-02-26T02:36:17.726Z,73.40
2019-02-26T02:38:47.391Z,73.50
2019-02-26T02:41:18.605Z,73.80
2019-02-26T02:43:51.138Z,74.00
2019-02-26T02:46:22.227Z,74.10
2019-02-26T02:48:53.098Z,74.40
2019-02-26T02:51:25.747Z,74.40
2019-02-26T02:54:00.034Z,74.70
2019-02-26T02:56:33.392Z,74.80
2019-02-26T02:59:08.280Z,75.20
2019-02-26T03:01:37.188Z,75.30
2019-02-26T03:04:08.156Z,75.50
2019-02-26T03:06:39.208Z,75.70
2019-02-26T03:09:17.709Z,75.60
2019-02-26T03:11:49.721Z,75.80
2019-02-26T03:14:20.221Z,75.80
2019-02-26T03:16:53.393Z,75.90
2019-02-26T03:19:24.912Z,76.00
2019-02-26T03:21:56.029Z,76.10
2019-02-26T03:24:30.245Z,76.10
2019-02-26T03:27:01.846Z,76.10
2019-02-26T03:29:32.770Z,76.00
2019-02-26T03:32:02.654Z,76.00
2019-02-26T03:34:33.904Z,76.10
2019-02-26T03:37:03.922Z,76.10
2019-02-26T03:39:33.399Z,76.30
2019-02-26T03:42:05.717Z,76.30
2019-02-26T03:44:36.697Z,76.30
2019-02-26T03:47:09.143Z,76.20
2019-02-26T03:49:42.321Z,76.50
2019-02-26T03:52:15.371Z,76.40
2019-02-26T03:54:48.627Z,76.40
2019-02-26T03:57:20.113Z,76.40
2019-02-26T03:59:50.355Z,76.40
2019-02-26T04:02:23.470Z,76.60
2019-02-26T04:04:57.248Z,76.70
2019-02-26T04:07:28.343Z,76.70
2019-02-26T04:10:01.962Z,76.80
2019-02-26T04:12:39.244Z,76.60
2019-02-26T04:15:13.351Z,76.70
2019-02-26T04:17:44.438Z,76.80
2019-02-26T04:20:15.811Z,76.80
2019-02-26T04:22:50.085Z,76.90
2019-02-26T04:25:38.873Z,77.00
2019-02-26T04:28:32.990Z,77.10
2019-02-26T04:31:03.129Z,77.10
2019-02-26T04:34:01.141Z,77.00
2019-02-26T04:36:44.850Z,77.20
2019-02-26T04:39:34.449Z,77.30
2019-02-26T04:42:17.601Z,77.30
2019-02-26T04:45:05.882Z,77.30
2019-02-26T04:47:52.447Z,77.50
2019-02-26T04:50:28.761Z,77.40
2019-02-26T04:53:01.510Z,77.60
2019-02-26T04:55:29.739Z,77.40
2019-02-26T04:58:01.987Z,77.60
2019-02-26T05:00:36.036Z,77.50
2019-02-26T05:03:05.111Z,77.50
2019-02-26T05:05:37.126Z,77.80
2019-02-26T05:08:09.955Z,77.80
2019-02-26T05:10:43.234Z,77.80
2019-02-26T05:13:16.353Z,77.90
2019-02-26T05:15:47.240Z,77.90
2019-02-26T05:18:22.668Z,78.20
2019-02-26T05:20:51.271Z,78.30
2019-02-26T05:23:25.910Z,78.30
2019-02-26T05:26:18.092Z,78.30
2019-02-26T05:28:49.692Z,78.40
2019-02-26T05:31:21.162Z,78.50
2019-02-26T05:33:57.727Z,78.50
2019-02-26T05:36:31.744Z,78.60
2019-02-26T05:39:02.810Z,78.40
2019-02-26T05:41:32.011Z,78.00
2019-02-26T05:44:06.638Z,78.00
2019-02-26T05:46:36.739Z,78.00
2019-02-26T05:49:12.514Z,77.90
2019-02-26T05:51:40.788Z,77.70
2019-02-26T05:54:17.452Z,77.80
2019-02-26T05:56:44.132Z,77.40
2019-02-26T05:59:15.416Z,77.30
2019-02-26T06:01:47.467Z,77.40
2019-02-26T06:04:20.599Z,77.40
2019-02-26T06:06:56.055Z,77.40
2019-02-26T06:09:29.874Z,77.50
2019-02-26T06:11:59.728Z,77.40
2019-02-26T06:14:33.296Z,77.00
2019-02-26T06:17:04.243Z,76.70
2019-02-26T06:19:51.824Z,76.70
2019-02-26T06:22:26.041Z,76.90
2019-02-26T06:24:59.503Z,76.60
2019-02-26T06:27:29.188Z,76.60
2019-02-26T06:30:00.908Z,76.30
2019-02-26T06:32:35.211Z,76.20
2019-02-26T06:35:13.695Z,76.10
2019-02-26T06:37:45.292Z,76.10
2019-02-26T06:40:19.964Z,75.70
2019-02-26T06:43:10.228Z,75.60
2019-02-26T06:45:43.591Z,75.60
2019-02-26T06:48:19.335Z,75.50
2019-02-26T06:50:47.986Z,75.50
2019-02-26T06:53:21.536Z,75.50
2019-02-26T06:55:50.435Z,75.30
2019-02-26T06:58:21.272Z,75.20
2019-02-26T07:00:55.146Z,75.00
2019-02-26T07:03:24.801Z,74.70
2019-02-26T07:06:01.745Z,74.70
2019-02-26T07:08:30.972Z,74.80
2019-02-26T07:11:03.826Z,74.80
2019-02-26T07:13:38.600Z,74.60
2019-02-26T07:16:07.346Z,74.40
2019-02-26T07:18:40.393Z,74.70
2019-02-26T07:21:11.424Z,74.80
2019-02-26T07:23:43.834Z,74.70
2019-02-26T07:26:15.942Z,75.00
2019-02-26T07:28:48.287Z,74.70
2019-02-26T07:31:18.803Z,74.90
2019-02-26T07:33:51.503Z,75.00
2019-02-26T07:36:23.622Z,75.00
2019-02-26T07:38:56.023Z,75.30
2019-02-26T07:41:28.392Z,75.30
2019-02-26T07:44:00.196Z,75.20
2019-02-26T07:46:33.188Z,75.30
2019-02-26T07:49:04.875Z,75.20
2019-02-26T07:51:36.419Z,75.30
2019-02-26T07:54:07.982Z,74.90
2019-02-26T07:56:40.156Z,74.80
2019-02-26T07:59:12.577Z,74.80
2019-02-26T08:01:47.094Z,75.10
2019-02-26T08:04:19.235Z,75.00
2019-02-26T08:06:51.952Z,74.90
2019-02-26T08:09:23.598Z,74.80
2019-02-26T08:11:54.488Z,74.60
2019-02-26T08:14:26.772Z,74.70
2019-02-26T08:17:01.919Z,74.10
2019-02-26T08:19:37.611Z,74.20
2019-02-26T08:22:06.566Z,74.30
2019-02-26T08:24:36.443Z,74.30
2019-02-26T08:27:08.519Z,74.80
2019-02-26T08:29:42.014Z,74.30
2019-02-26T08:32:15.932Z,74.70
2019-02-26T08:34:45.441Z,74.50
2019-02-26T08:37:16.379Z,74.60
2019-02-26T08:39:48.835Z,75.00
2019-02-26T08:42:21.342Z,74.80
2019-02-26T08:44:54.210Z,74.60
2019-02-26T08:47:23.791Z,74.80
2019-02-26T08:49:53.759Z,74.80
2019-02-26T08:52:25.029Z,74.60
2019-02-26T08:54:56.038Z,74.60
2019-02-26T08:57:30.295Z,74.90
2019-02-26T09:00:03.447Z,74.70
2019-02-26T09:02:33.343Z,74.90
2019-02-26T09:05:07.490Z,74.90
2019-02-26T09:07:43.278Z,75.10
2019-02-26T09:10:15.840Z,75.20
2019-02-26T09:12:49.079Z,74.90
2019-02-26T09:15:25.139Z,74.80
2019-02-26T09:17:56.056Z,74.60
2019-02-26T09:20:27.812Z,74.70
2019-02-26T09:22:59.516Z,74.70
2019-02-26T09:25:31.352Z,74.20
2019-02-26T09:28:03.229Z,74.70
2019-02-26T09:30:35.834Z,74.40
2019-02-26T09:33:08.325Z,74.40
2019-02-26T09:35:38.866Z,74.30
2019-02-26T09:40:45.158Z,74.30
2019-02-26T09:43:17.268Z,73.60
2019-02-26T09:45:50.666Z,73.60
2019-02-26T09:48:22.041Z,73.60
2019-02-26T09:50:55.223Z,73.10
2019-02-26T09:53:26.057Z,71.90
2019-02-26T09:55:57.146Z,71.90
2019-02-26T09:58:28.101Z,72.30
2019-02-26T10:01:00.282Z,72.30
2019-02-26T10:03:34.466Z,72.30
2019-02-26T10:06:05.169Z,72.30
2019-02-26T10:08:35.286Z,72.60
2019-02-26T10:11:18.488Z,73.70
2019-02-26T10:13:51.220Z,73.20
2019-02-26T10:16:28.117Z,72.80
2019-02-26T10:18:58.676Z,72.40
2019-02-26T10:21:32.196Z,71.90
2019-02-26T10:24:04.480Z,71.90
2019-02-26T10:26:38.313Z,70.90
2019-02-26T10:29:08.729Z,70.10
2019-02-26T10:31:41.106Z,68.00
2019-02-26T10:34:15.417Z,66.00
2019-02-26T10:36:49.173Z,66.80
2019-02-26T10:39:20.823Z,66.60
2019-02-26T10:41:52.197Z,67.30
2019-02-26T10:44:24.430Z,66.60
2019-02-26T10:46:55.499Z,67.50
2019-02-26T10:49:28.635Z,67.50
2019-02-26T10:51:59.832Z,66.90
2019-02-26T10:54:34.232Z,66.70
2019-02-26T10:57:07.093Z,66.60
2019-02-26T10:59:34.757Z,66.50
2019-02-26T11:02:05.703Z,65.80
2019-02-26T11:04:41.108Z,64.30
2019-02-26T11:07:11.479Z,63.30
2019-02-26T11:09:44.714Z,63.20
2019-02-26T11:12:20.092Z,63.60
2019-02-26T11:14:52.676Z,62.50
2019-02-26T11:17:26.405Z,62.20
2019-02-26T11:19:58.532Z,63.50
2019-02-26T11:22:30.234Z,64.70
2019-02-26T11:25:03.318Z,64.80
2019-02-26T11:27:37.820Z,65.20
2019-02-26T11:30:10.353Z,66.10
2019-02-26T11:32:42.257Z,65.40
2019-02-26T11:35:17.054Z,64.80
2019-02-26T11:37:49.827Z,63.90
2019-02-26T11:40:29.569Z,63.30
2019-02-26T11:43:04.461Z,62.00
2019-02-26T11:45:32.877Z,62.10
2019-02-26T11:48:06.017Z,62.30
2019-02-26T11:50:38.599Z,61.90
2019-02-26T11:53:10.069Z,62.20
2019-02-26T11:55:43.104Z,62.30
2019-02-26T11:58:16.058Z,61.40
2019-02-26T12:00:50.170Z,61.60
2019-02-26T12:03:22.830Z,62.00
2019-02-26T12:05:56.032Z,60.80
2019-02-26T12:08:28.476Z,58.60
2019-02-26T12:11:03.629Z,56.80
2019-02-26T12:13:31.916Z,56.70
2019-02-26T12:16:02.882Z,55.80
2019-02-26T12:18:34.284Z,53.40
2019-02-26T12:21:07.903Z,53.70
2019-02-26T12:23:39.739Z,54.00
2019-02-26T12:26:10.104Z,54.00
2019-02-26T12:28:42.468Z,53.90
2019-02-26T12:31:14.930Z,53.30
2019-02-26T12:33:44.746Z,52.60
2019-02-26T12:36:14.548Z,52.20
2019-02-26T12:38:47.171Z,51.50
2019-02-26T12:41:19.086Z,51.90
2019-02-26T12:43:49.368Z,51.40
2019-02-26T12:46:21.604Z,51.10
2019-02-26T12:48:51.042Z,51.60
2019-02-26T12:51:22.707Z,49.90
2019-02-26T12:53:54.840Z,50.50
2019-02-26T12:56:27.009Z,51.40
2019-02-26T12:58:56.287Z,50.30
2019-02-26T13:01:26.225Z,51.00
2019-02-26T13:03:57.158Z,51.40
2019-02-26T13:06:28.050Z,52.10
2019-02-26T13:09:01.101Z,53.50
2019-02-26T13:11:33.617Z,53.40
2019-02-26T13:14:04.548Z,54.20
2019-02-26T13:16:35.446Z,54.50
2019-02-26T13:19:06.307Z,53.10
2019-02-26T13:21:42.562Z,52.30
2019-02-26T13:24:14.387Z,51.60
2019-02-26T13:26:46.897Z,52.00
2019-02-26T13:29:15.012Z,51.30
2019-02-26T13:31:55.729Z,51.50
2019-02-26T13:34:17.900Z,52.20
2019-02-26T13:36:53.748Z,51.50
2019-02-26T13:41:58.597Z,51.20
2019-02-26T13:44:25.070Z,51.90
2019-02-26T13:46:54.978Z,52.20
2019-02-26T13:49:27.323Z,52.60
2019-02-26T13:52:00.226Z,52.70
2019-02-26T13:54:32.622Z,53.40
2019-02-26T13:57:02.655Z,52.30
2019-02-26T13:59:34.849Z,53.10
2019-02-26T14:02:04.599Z,52.80
2019-02-26T14:04:34.509Z,51.80
2019-02-26T14:07:06.883Z,51.60
2019-02-26T14:09:37.928Z,51.80
2019-02-26T14:12:08.950Z,52.30
2019-02-26T14:14:39.892Z,52.70
2019-02-26T14:17:10.885Z,52.20
2019-02-26T14:19:40.735Z,52.20
2019-02-26T14:22:10.658Z,52.90
2019-02-26T14:24:40.698Z,52.50
2019-02-26T14:27:36.044Z,53.20
2019-02-26T14:30:14.924Z,54.00
2019-02-26T14:32:46.149Z,54.30
2019-02-26T14:35:19.126Z,54.50
2019-02-26T14:37:50.632Z,55.20
2019-02-26T14:40:21.586Z,55.60
2019-02-26T14:42:50.871Z,54.80
2019-02-26T14:45:28.962Z,55.60
2019-02-26T14:48:01.168Z,56.10
2019-02-26T14:50:34.196Z,57.20
2019-02-26T14:53:05.070Z,58.90
2019-02-26T14:55:35.902Z,60.90
2019-02-26T14:58:07.352Z,61.30
2019-02-26T15:00:39.990Z,61.90
2019-02-26T15:03:11.112Z,62.30
2019-02-26T15:05:43.523Z,63.30
2019-02-26T15:08:16.219Z,64.60
2019-02-26T15:10:47.327Z,66.00
2019-02-26T15:13:18.414Z,67.10
2019-02-26T15:15:50.976Z,67.80
2019-02-26T15:18:22.200Z,68.50
2019-02-26T15:20:54.328Z,69.30
2019-02-26T15:23:25.563Z,69.90
2019-02-26T15:25:56.549Z,70.30
2019-02-26T15:28:30.719Z,70.70
2019-02-26T15:31:00.503Z,70.90
2019-02-26T15:33:31.880Z,71.30
2019-02-26T15:36:03.127Z,71.80
2019-02-26T15:38:35.617Z,72.00
2019-02-26T15:41:07.265Z,72.00
2019-02-26T15:43:38.288Z,72.50
2019-02-26T15:46:09.484Z,72.60
2019-02-26T15:48:40.590Z,72.80
2019-02-26T15:51:14.587Z,73.30
2019-02-26T15:53:44.458Z,73.50
2019-02-26T15:56:17.845Z,73.40
2019-02-26T15:58:50.170Z,73.60
2019-02-26T16:01:20.345Z,74.00
2019-02-26T16:03:50.296Z,74.00
2019-02-26T16:06:21.248Z,74.20
2019-02-26T16:08:53.555Z,74.50
2019-02-26T16:11:25.935Z,74.80
2019-02-26T16:13:56.965Z,74.90
2019-02-26T16:16:27.943Z,75.10
2019-02-26T16:19:00.737Z,75.20
2019-02-26T16:21:31.311Z,75.40
2019-02-26T16:24:07.315Z,75.90
2019-02-26T16:26:40.983Z,76.00
2019-02-26T16:29:10.044Z,76.10
2019-02-26T16:31:41.213Z,76.30
2019-02-26T16:34:12.368Z,76.60
2019-02-26T16:36:42.236Z,76.80
2019-02-26T16:39:12.339Z,77.00
2019-02-26T16:41:43.374Z,77.20
2019-02-26T16:44:12.506Z,77.30
2019-02-26T16:46:42.697Z,77.30
2019-02-26T16:49:12.462Z,77.60
2019-02-26T16:51:43.590Z,77.70
2019-02-26T16:54:15.697Z,77.70
2019-02-26T16:56:46.616Z,77.90
2019-02-26T16:59:16.591Z,78.00
2019-02-26T17:01:46.631Z,78.10
2019-02-26T17:04:15.943Z,78.10
2019-02-26T17:06:47.018Z,78.30
2019-02-26T17:09:19.013Z,78.30
2019-02-26T17:11:52.311Z,78.20
2019-02-26T17:14:42.391Z,78.50
2019-02-26T17:17:13.436Z,78.50
2019-02-26T17:19:43.239Z,78.60
2019-02-26T17:22:13.182Z,78.70
2019-02-26T17:24:42.127Z,78.80
2019-02-26T17:27:13.275Z,79.00
2019-02-26T17:29:43.179Z,78.80
2019-02-26T17:32:14.027Z,78.80
2019-02-26T17:34:43.790Z,78.80
2019-02-26T17:37:16.150Z,78.90
2019-02-26T17:39:46.482Z,78.80
2019-02-26T17:42:17.807Z,79.00
2019-02-26T17:44:49.448Z,79.20
2019-02-26T17:47:19.362Z,79.40
2019-02-26T17:49:50.720Z,79.40
2019-02-26T17:52:20.687Z,79.60
2019-02-26T17:54:51.672Z,79.60
2019-02-26T17:57:22.999Z,79.70
2019-02-26T17:59:52.849Z,79.70
2019-02-26T18:02:22.680Z,79.70
2019-02-26T18:04:54.998Z,79.80
2019-02-26T18:07:27.482Z,79.70
2019-02-26T18:09:56.687Z,79.60
2019-02-26T18:12:29.809Z,79.80
2019-02-26T18:14:59.514Z,79.90
2019-02-26T18:17:28.837Z,80.10
2019-02-26T18:20:01.398Z,80.40
2019-02-26T18:22:33.952Z,80.70
2019-02-26T18:25:07.956Z,80.50
2019-02-26T18:27:37.937Z,80.80
2019-02-26T18:30:12.327Z,81.10
2019-02-26T18:32:49.991Z,81.20
2019-02-26T18:35:33.793Z,81.50
2019-02-26T18:38:04.801Z,81.40
2019-02-26T18:40:36.971Z,81.50
2019-02-26T18:43:07.797Z,81.60
2019-02-26T18:45:37.643Z,81.50
2019-02-26T18:48:08.556Z,81.50
2019-02-26T18:50:39.372Z,81.60
2019-02-26T18:53:11.728Z,81.80
2019-02-26T18:55:43.929Z,81.90
2019-02-26T18:58:16.434Z,81.90
2019-02-26T19:00:47.939Z,81.90
2019-02-26T19:03:18.734Z,82.10
2019-02-26T19:05:48.010Z,82.00
2019-02-26T19:08:21.619Z,82.10
2019-02-26T19:11:03.675Z,82.30
2019-02-26T19:13:49.900Z,82.30
2019-02-26T19:16:37.880Z,82.50
2019-02-26T19:19:09.136Z,82.50
2019-02-26T19:21:46.022Z,82.40
2019-02-26T19:24:18.451Z,82.60
2019-02-26T19:26:59.063Z,82.70
2019-02-26T19:29:34.759Z,82.70
2019-02-26T19:32:19.695Z,82.90
2019-02-26T19:35:12.041Z,83.10
2019-02-26T19:37:54.712Z,83.00
2019-02-26T19:40:38.976Z,83.20
2019-02-26T19:45:43.863Z,83.30
2019-02-26T19:48:30.435Z,83.60
2019-02-26T19:51:00.839Z,83.70
2019-02-26T19:53:34.491Z,83.90
2019-02-26T19:56:23.376Z,84.00
2019-02-26T19:58:57.054Z,84.40
2019-02-26T20:01:42.218Z,84.40
2019-02-26T20:04:27.001Z,84.50
2019-02-26T20:09:52.124Z,84.40
2019-02-26T20:12:36.714Z,84.60
2019-02-26T20:15:24.668Z,84.70
2019-02-26T20:17:54.422Z,84.50
2019-02-26T20:20:41.086Z,84.90
2019-02-26T20:23:26.467Z,84.80
2019-02-26T20:26:10.814Z,85.00
2019-02-26T20:28:41.580Z,84.90
2019-02-26T20:31:28.863Z,84.70
2019-02-26T20:34:06.817Z,84.70
2019-02-26T20:36:43.221Z,84.90
2019-02-26T20:39:13.122Z,84.70
2019-02-26T20:41:42.487Z,84.80
2019-02-26T20:44:18.300Z,84.90
2019-02-26T20:46:48.174Z,84.90
2019-02-26T20:49:19.137Z,84.90
2019-02-26T20:51:49.005Z,85.00
2019-02-26T20:54:20.083Z,85.20
2019-02-26T20:56:51.139Z,85.30
2019-02-26T20:59:22.108Z,85.10
2019-02-26T21:01:54.363Z,85.10
2019-02-26T21:04:26.611Z,85.10
2019-02-26T21:06:55.931Z,85.30
2019-02-26T21:09:44.937Z,85.60
2019-02-26T21:12:15.856Z,85.50
2019-02-26T21:14:47.622Z,85.60
2019-02-26T21:17:20.693Z,85.70
2019-02-26T21:19:50.631Z,85.80
2019-02-26T21:22:22.023Z,86.00
2019-02-26T21:24:53.852Z,86.00
2019-02-26T21:27:25.954Z,86.00
2019-02-26T21:30:01.313Z,86.20
2019-02-26T21:32:34.372Z,86.40
2019-02-26T21:35:07.591Z,86.50
2019-02-26T21:37:40.051Z,86.60
2019-02-26T21:40:16.954Z,86.50
2019-02-26T21:42:46.890Z,86.50
2019-02-26T21:45:20.029Z,86.40
2019-02-26T21:47:50.067Z,87.00
2019-02-26T21:50:22.034Z,87.00
2019-02-26T21:52:59.976Z,87.20
2019-02-26T21:55:25.058Z,87.20
2019-02-26T21:57:56.165Z,87.30
2019-02-26T22:00:27.198Z,87.10
2019-02-26T22:02:57.140Z,87.20
2019-02-26T22:05:30.013Z,87.40
2019-02-26T22:08:00.565Z,87.30
2019-02-26T22:10:32.827Z,87.40
2019-02-26T22:13:04.345Z,87.60
2019-02-26T22:15:33.270Z,87.60
2019-02-26T22:18:02.162Z,87.60
2019-02-26T22:20:36.175Z,87.80
2019-02-26T22:23:07.734Z,87.90
2019-02-26T22:25:38.491Z,87.90
2019-02-26T22:28:09.831Z,87.70
2019-02-26T22:30:41.104Z,88.00
2019-02-26T22:33:13.353Z,88.00
2019-02-26T22:35:44.431Z,88.00
2019-02-26T22:38:16.060Z,88.00
2019-02-26T22:40:47.099Z,88.20
2019-02-26T22:43:18.167Z,88.30
2019-02-26T22:45:49.178Z,88.60
2019-02-26T22:48:23.837Z,88.50
2019-02-26T22:50:54.814Z,88.60
2019-02-26T22:53:26.700Z,88.50
2019-02-26T22:55:58.903Z,88.40
2019-02-26T22:58:29.850Z,88.40
2019-02-26T23:01:16.969Z,88.90
2019-02-26T23:03:49.240Z,88.60
2019-02-26T23:06:19.276Z,88.40
2019-02-26T23:08:50.322Z,88.90
2019-02-26T23:11:21.553Z,88.60
2019-02-26T23:13:51.532Z,89.30
2019-02-26T23:16:21.510Z,89.30
2019-02-26T23:18:56.211Z,89.40
2019-02-26T23:21:28.435Z,89.30
2019-02-26T23:24:01.416Z,89.50
2019-02-26T23:26:32.342Z,89.10
2019-02-26T23:29:04.025Z,89.30
2019-02-26T23:31:34.084Z,89.10
2019-02-26T23:34:03.409Z,89.40
2019-02-26T23:36:34.540Z,89.50
2019-02-26T23:39:08.879Z,89.70
2019-02-26T23:41:39.916Z,89.60
2019-02-26T23:44:10.438Z,89.70
2019-02-26T23:46:41.554Z,89.70
2019-02-26T23:49:14.118Z,89.50
2019-02-26T23:51:44.079Z,89.80
2019-02-26T23:54:13.919Z,89.60
2019-02-26T23:56:43.782Z,89.60
2019-02-26T23:59:14.731Z,89.70
